sensor_id;sensor_type;location;lat;lon;timestamp;pressure;altitude;pressure_sealevel;temperature;humidity
74045;BME280;62389;51.412;5.436;2024-01-30T00:02:12;102515.25;;;5.62;100.00
74045;BME280;62389;51.412;5.436;2024-01-30T00:04:38;102519.59;;;5.61;100.00
74045;BME280;62389;51.412;5.436;2024-01-30T00:07:03;102517.03;;;5.63;100.00
74045;BME280;62389;51.412;5.436;2024-01-30T00:09:29;102524.81;;;5.64;100.00
74045;BME280;62389;51.412;5.436;2024-01-30T00:11:54;102520.47;;;5.63;100.00
74045;BME280;62389;51.412;5.436;2024-01-30T00:14:19;102515.25;;;5.60;100.00
74045;BME280;62389;51.412;5.436;2024-01-30T00:16:45;102526.50;;;5.59;100.00
74045;BME280;62389;51.412;5.436;2024-01-30T00:19:10;102518.72;;;5.59;100.00
74045;BME280;62389;51.412;5.436;2024-01-30T00:21:36;102524.78;;;5.61;100.00
74045;BME280;62389;51.412;5.436;2024-01-30T00:24:01;102519.59;;;5.61;100.00
74045;BME280;62389;51.412;5.436;2024-01-30T00:26:27;102516.09;;;5.56;100.00
74045;BME280;62389;51.412;5.436;2024-01-30T00:28:52;102519.53;;;5.52;100.00
74045;BME280;62389;51.412;5.436;2024-01-30T00:31:17;102512.63;;;5.51;100.00
74045;BME280;62389;51.412;5.436;2024-01-30T00:33:43;102513.50;;;5.50;100.00
74045;BME280;62389;51.412;5.436;2024-01-30T00:36:09;102516.09;;;5.52;100.00
74045;BME280;62389;51.412;5.436;2024-01-30T00:38:35;102501.38;;;5.52;100.00
74045;BME280;62389;51.412;5.436;2024-01-30T00:41:01;102506.56;;;5.51;100.00
74045;BME280;62389;51.412;5.436;2024-01-30T00:43:27;102498.78;;;5.51;100.00
74045;BME280;62389;51.412;5.436;2024-01-30T00:45:52;102504.88;;;5.54;100.00
74045;BME280;62389;51.412;5.436;2024-01-30T00:48:18;102510.06;;;5.56;100.00
74045;BME280;62389;51.412;5.436;2024-01-30T00:50:44;102504.88;;;5.59;100.00
74045;BME280;62389;51.412;5.436;2024-01-30T00:53:09;102502.28;;;5.59;100.00
74045;BME280;62389;51.412;5.436;2024-01-30T00:55:35;102496.22;;;5.60;100.00
74045;BME280;62389;51.412;5.436;2024-01-30T00:58:00;102504.03;;;5.64;100.00
74045;BME280;62389;51.412;5.436;2024-01-30T01:00:26;102495.41;;;5.68;100.00
74045;BME280;62389;51.412;5.436;2024-01-30T01:02:54;102496.25;;;5.72;100.00
74045;BME280;62389;51.412;5.436;2024-01-30T01:05:20;102497.13;;;5.76;100.00
74045;BME280;62389;51.412;5.436;2024-01-30T01:07:45;102491.94;;;5.82;100.00
74045;BME280;62389;51.412;5.436;2024-01-30T01:10:12;102492.84;;;5.90;100.00
74045;BME280;62389;51.412;5.436;2024-01-30T01:12:39;102488.56;;;5.95;100.00
74045;BME280;62389;51.412;5.436;2024-01-30T01:15:05;102492.91;;;5.97;100.00
74045;BME280;62389;51.412;5.436;2024-01-30T01:17:34;102486.81;;;5.97;100.00
74045;BME280;62389;51.412;5.436;2024-01-30T01:20:00;102490.28;;;5.96;100.00
74045;BME280;62389;51.412;5.436;2024-01-30T01:22:25;102486.00;;;5.98;100.00
74045;BME280;62389;51.412;5.436;2024-01-30T01:24:50;102487.72;;;6.01;100.00
74045;BME280;62389;51.412;5.436;2024-01-30T01:27:16;102483.38;;;6.01;100.00
74045;BME280;62389;51.412;5.436;2024-01-30T01:29:41;102479.91;;;6.02;100.00
74045;BME280;62389;51.412;5.436;2024-01-30T01:32:07;102485.97;;;6.06;100.00
74045;BME280;62389;51.412;5.436;2024-01-30T01:34:32;102492.06;;;6.08;100.00
74045;BME280;62389;51.412;5.436;2024-01-30T01:36:58;102486.84;;;6.06;100.00
74045;BME280;62389;51.412;5.436;2024-01-30T01:39:23;102479.06;;;6.06;100.00
74045;BME280;62389;51.412;5.436;2024-01-30T01:41:49;102481.69;;;6.08;100.00
74045;BME280;62389;51.412;5.436;2024-01-30T01:44:14;102484.28;;;6.08;100.00
74045;BME280;62389;51.412;5.436;2024-01-30T01:46:39;102482.50;;;6.07;100.00
74045;BME280;62389;51.412;5.436;2024-01-30T01:49:05;102478.19;;;6.10;100.00
74045;BME280;62389;51.412;5.436;2024-01-30T01:51:34;102477.34;;;6.14;100.00
74045;BME280;62389;51.412;5.436;2024-01-30T01:54:03;102474.72;;;6.17;100.00
74045;BME280;62389;51.412;5.436;2024-01-30T01:56:30;102479.91;;;6.17;100.00
74045;BME280;62389;51.412;5.436;2024-01-30T01:58:59;102466.06;;;6.15;100.00
74045;BME280;62389;51.412;5.436;2024-01-30T02:01:26;102466.06;;;6.12;100.00
74045;BME280;62389;51.412;5.436;2024-01-30T02:03:52;102469.53;;;6.10;100.00
74045;BME280;62389;51.412;5.436;2024-01-30T02:06:18;102466.06;;;6.06;100.00
74045;BME280;62389;51.412;5.436;2024-01-30T02:08:44;102461.75;;;6.04;100.00
74045;BME280;62389;51.412;5.436;2024-01-30T02:11:09;102466.94;;;5.97;100.00
74045;BME280;62389;51.412;5.436;2024-01-30T02:13:36;102466.94;;;5.93;100.00
74045;BME280;62389;51.412;5.436;2024-01-30T02:16:01;102471.19;;;5.91;100.00
74045;BME280;62389;51.412;5.436;2024-01-30T02:18:27;102458.22;;;5.89;100.00
74045;BME280;62389;51.412;5.436;2024-01-30T02:20:56;102459.06;;;5.87;100.00
74045;BME280;62389;51.412;5.436;2024-01-30T02:23:23;102460.81;;;5.86;100.00
74045;BME280;62389;51.412;5.436;2024-01-30T02:25:49;102457.38;;;5.87;100.00
74045;BME280;62389;51.412;5.436;2024-01-30T02:28:15;102457.38;;;5.89;100.00
74045;BME280;62389;51.412;5.436;2024-01-30T02:30:43;102450.44;;;5.91;100.00
74045;BME280;62389;51.412;5.436;2024-01-30T02:33:08;102449.56;;;5.90;100.00
74045;BME280;62389;51.412;5.436;2024-01-30T02:35:33;102453.00;;;5.86;100.00
74045;BME280;62389;51.412;5.436;2024-01-30T02:37:59;102454.75;;;5.81;100.00
74045;BME280;62389;51.412;5.436;2024-01-30T02:40:24;102452.16;;;5.80;100.00
74045;BME280;62389;51.412;5.436;2024-01-30T02:42:50;102451.28;;;5.78;100.00
74045;BME280;62389;51.412;5.436;2024-01-30T02:45:15;102453.00;;;5.77;100.00
74045;BME280;62389;51.412;5.436;2024-01-30T02:47:41;102446.09;;;5.78;100.00
74045;BME280;62389;51.412;5.436;2024-01-30T02:50:06;102453.88;;;5.81;100.00
74045;BME280;62389;51.412;5.436;2024-01-30T02:52:32;102450.41;;;5.82;100.00
74045;BME280;62389;51.412;5.436;2024-01-30T02:54:58;102443.50;;;5.81;100.00
74045;BME280;62389;51.412;5.436;2024-01-30T02:57:23;102448.69;;;5.81;100.00
74045;BME280;62389;51.412;5.436;2024-01-30T02:59:48;102455.63;;;5.86;100.00
74045;BME280;62389;51.412;5.436;2024-01-30T03:02:14;102451.31;;;5.88;100.00
74045;BME280;62389;51.412;5.436;2024-01-30T03:04:42;102451.31;;;5.90;100.00
74045;BME280;62389;51.412;5.436;2024-01-30T03:07:08;102443.56;;;5.93;100.00
74045;BME280;62389;51.412;5.436;2024-01-30T03:09:33;102438.38;;;5.97;100.00
74045;BME280;62389;51.412;5.436;2024-01-30T03:11:58;102442.69;;;5.99;100.00
74045;BME280;62389;51.412;5.436;2024-01-30T03:14:24;102437.50;;;5.99;100.00
74045;BME280;62389;51.412;5.436;2024-01-30T03:16:49;102432.31;;;5.99;100.00
74045;BME280;62389;51.412;5.436;2024-01-30T03:19:15;102428.81;;;6.01;100.00
74045;BME280;62389;51.412;5.436;2024-01-30T03:21:40;102434.03;;;6.04;100.00
74045;BME280;62389;51.412;5.436;2024-01-30T03:24:05;102423.66;;;6.03;100.00
74045;BME280;62389;51.412;5.436;2024-01-30T03:26:31;102421.91;;;6.00;100.00
74045;BME280;62389;51.412;5.436;2024-01-30T03:28:56;102426.25;;;6.00;100.00
74045;BME280;62389;51.412;5.436;2024-01-30T03:31:22;102416.72;;;6.00;100.00
74045;BME280;62389;51.412;5.436;2024-01-30T03:33:47;102424.50;;;6.00;100.00
74045;BME280;62389;51.412;5.436;2024-01-30T03:36:12;102423.63;;;6.00;100.00
74045;BME280;62389;51.412;5.436;2024-01-30T03:38:38;102413.25;;;6.00;100.00
74045;BME280;62389;51.412;5.436;2024-01-30T03:41:07;102427.97;;;6.04;100.00
74045;BME280;62389;51.412;5.436;2024-01-30T03:43:32;102427.97;;;6.10;100.00
74045;BME280;62389;51.412;5.436;2024-01-30T03:45:57;102432.31;;;6.14;100.00
74045;BME280;62389;51.412;5.436;2024-01-30T03:48:23;102427.09;;;6.20;100.00
74045;BME280;62389;51.412;5.436;2024-01-30T03:50:48;102427.97;;;6.28;100.00
74045;BME280;62389;51.412;5.436;2024-01-30T03:53:13;102437.50;;;6.35;100.00
74045;BME280;62389;51.412;5.436;2024-01-30T03:55:39;102431.41;;;6.41;100.00
74045;BME280;62389;51.412;5.436;2024-01-30T03:58:04;102427.97;;;6.48;100.00
74045;BME280;62389;51.412;5.436;2024-01-30T04:00:30;102418.41;;;6.55;100.00
74045;BME280;62389;51.412;5.436;2024-01-30T04:02:55;102435.75;;;6.59;100.00
74045;BME280;62389;51.412;5.436;2024-01-30T04:05:20;102429.69;;;6.63;100.00
74045;BME280;62389;51.412;5.436;2024-01-30T04:07:46;102431.38;;;6.65;100.00
74045;BME280;62389;51.412;5.436;2024-01-30T04:10:11;102424.44;;;6.67;100.00
74045;BME280;62389;51.412;5.436;2024-01-30T04:12:36;102431.41;;;6.68;100.00
74045;BME280;62389;51.412;5.436;2024-01-30T04:15:02;102426.19;;;6.68;100.00
74045;BME280;62389;51.412;5.436;2024-01-30T04:17:28;102426.19;;;6.70;100.00
74045;BME280;62389;51.412;5.436;2024-01-30T04:19:54;102418.38;;;6.73;100.00
74045;BME280;62389;51.412;5.436;2024-01-30T04:22:20;102421.84;;;6.75;100.00
74045;BME280;62389;51.412;5.436;2024-01-30T04:24:45;102418.34;;;6.81;100.00
74045;BME280;62389;51.412;5.436;2024-01-30T04:27:10;102417.47;;;6.85;100.00
74045;BME280;62389;51.412;5.436;2024-01-30T04:29:36;102405.31;;;6.90;100.00
74045;BME280;62389;51.412;5.436;2024-01-30T04:32:01;102417.44;;;6.94;100.00
74045;BME280;62389;51.412;5.436;2024-01-30T04:34:27;102406.16;;;6.98;100.00
74045;BME280;62389;51.412;5.436;2024-01-30T04:36:52;102400.06;;;7.02;100.00
74045;BME280;62389;51.412;5.436;2024-01-30T04:39:17;102400.91;;;7.06;100.00
74045;BME280;62389;51.412;5.436;2024-01-30T04:41:43;102398.31;;;7.07;100.00
74045;BME280;62389;51.412;5.436;2024-01-30T04:44:08;102393.97;;;7.09;100.00
74045;BME280;62389;51.412;5.436;2024-01-30T04:46:33;102388.72;;;7.17;100.00
74045;BME280;62389;51.412;5.436;2024-01-30T04:49:01;102391.31;;;7.24;100.00
74045;BME280;62389;51.412;5.436;2024-01-30T04:51:28;102381.72;;;7.30;100.00
74045;BME280;62389;51.412;5.436;2024-01-30T04:53:55;102391.22;;;7.37;100.00
74045;BME280;62389;51.412;5.436;2024-01-30T04:56:20;102386.00;;;7.41;100.00
74045;BME280;62389;51.412;5.436;2024-01-30T04:58:45;102382.53;;;7.44;100.00
74045;BME280;62389;51.412;5.436;2024-01-30T05:01:15;102384.22;;;7.46;100.00
74045;BME280;62389;51.412;5.436;2024-01-30T05:03:40;102384.22;;;7.49;100.00
74045;BME280;62389;51.412;5.436;2024-01-30T05:06:06;102379.84;;;7.51;100.00
74045;BME280;62389;51.412;5.436;2024-01-30T05:08:31;102385.06;;;7.55;100.00
74045;BME280;62389;51.412;5.436;2024-01-30T05:11:00;102386.75;;;7.57;100.00
74045;BME280;62389;51.412;5.436;2024-01-30T05:13:25;102386.72;;;7.62;100.00
74045;BME280;62389;51.412;5.436;2024-01-30T05:15:51;102388.47;;;7.61;100.00
74045;BME280;62389;51.412;5.436;2024-01-30T05:18:16;102391.06;;;7.63;100.00
74045;BME280;62389;51.412;5.436;2024-01-30T05:20:41;102398.00;;;7.65;100.00
74045;BME280;62389;51.412;5.436;2024-01-30T05:23:07;102391.91;;;7.66;100.00
74045;BME280;62389;51.412;5.436;2024-01-30T05:25:33;102390.19;;;7.68;100.00
74045;BME280;62389;51.412;5.436;2024-01-30T05:27:58;102392.72;;;7.73;100.00
74045;BME280;62389;51.412;5.436;2024-01-30T05:30:23;102393.59;;;7.75;100.00
74045;BME280;62389;51.412;5.436;2024-01-30T05:32:49;102385.75;;;7.76;100.00
74045;BME280;62389;51.412;5.436;2024-01-30T05:35:14;102390.97;;;7.79;100.00
74045;BME280;62389;51.412;5.436;2024-01-30T05:37:40;102390.06;;;7.81;100.00
74045;BME280;62389;51.412;5.436;2024-01-30T05:40:06;102389.19;;;7.82;100.00
74045;BME280;62389;51.412;5.436;2024-01-30T05:42:31;102382.25;;;7.84;100.00
74045;BME280;62389;51.412;5.436;2024-01-30T05:44:57;102382.25;;;7.84;100.00
74045;BME280;62389;51.412;5.436;2024-01-30T05:47:22;102387.47;;;7.84;100.00
74045;BME280;62389;51.412;5.436;2024-01-30T05:49:47;102389.19;;;7.85;100.00
74045;BME280;62389;51.412;5.436;2024-01-30T05:52:13;102387.44;;;7.85;100.00
74045;BME280;62389;51.412;5.436;2024-01-30T05:54:40;102398.69;;;7.87;100.00
74045;BME280;62389;51.412;5.436;2024-01-30T05:57:06;102385.69;;;7.89;100.00
74045;BME280;62389;51.412;5.436;2024-01-30T05:59:32;102389.13;;;7.91;100.00
74045;BME280;62389;51.412;5.436;2024-01-30T06:01:57;102398.66;;;7.92;100.00
74045;BME280;62389;51.412;5.436;2024-01-30T06:04:23;102391.72;;;7.91;100.00
74045;BME280;62389;51.412;5.436;2024-01-30T06:06:48;102395.22;;;7.90;100.00
74045;BME280;62389;51.412;5.436;2024-01-30T06:09:14;102396.06;;;7.92;100.00
74045;BME280;62389;51.412;5.436;2024-01-30T06:11:39;102395.19;;;7.94;100.00
74045;BME280;62389;51.412;5.436;2024-01-30T06:14:05;102396.03;;;7.96;100.00
74045;BME280;62389;51.412;5.436;2024-01-30T06:16:30;102391.69;;;7.98;100.00
74045;BME280;62389;51.412;5.436;2024-01-30T06:18:56;102389.91;;;8.00;100.00
74045;BME280;62389;51.412;5.436;2024-01-30T06:21:23;102387.28;;;8.02;100.00
74045;BME280;62389;51.412;5.436;2024-01-30T06:23:49;102394.28;;;8.00;100.00
74045;BME280;62389;51.412;5.436;2024-01-30T06:26:14;102399.47;;;8.00;100.00
74045;BME280;62389;51.412;5.436;2024-01-30T06:28:40;102390.78;;;7.98;100.00
74045;BME280;62389;51.412;5.436;2024-01-30T06:31:05;102389.94;;;7.97;100.00
74045;BME280;62389;51.412;5.436;2024-01-30T06:33:31;102404.69;;;8.00;100.00
74045;BME280;62389;51.412;5.436;2024-01-30T06:35:56;102396.84;;;8.01;100.00
74045;BME280;62389;51.412;5.436;2024-01-30T06:38:21;102405.50;;;8.07;100.00
74045;BME280;62389;51.412;5.436;2024-01-30T06:40:47;102399.41;;;8.08;100.00
74045;BME280;62389;51.412;5.436;2024-01-30T06:43:12;102397.66;;;8.08;100.00
74045;BME280;62389;51.412;5.436;2024-01-30T06:45:37;102398.53;;;8.10;100.00
74045;BME280;62389;51.412;5.436;2024-01-30T06:48:03;102401.09;;;8.13;100.00
74045;BME280;62389;51.412;5.436;2024-01-30T06:50:28;102413.28;;;8.14;100.00
74045;BME280;62389;51.412;5.436;2024-01-30T06:52:54;102416.75;;;8.15;100.00
74045;BME280;62389;51.412;5.436;2024-01-30T06:55:19;102421.94;;;8.16;100.00
74045;BME280;62389;51.412;5.436;2024-01-30T06:57:44;102420.19;;;8.18;100.00
74045;BME280;62389;51.412;5.436;2024-01-30T07:00:10;102422.78;;;8.20;100.00
74045;BME280;62389;51.412;5.436;2024-01-30T07:02:36;102432.28;;;8.22;100.00
74045;BME280;62389;51.412;5.436;2024-01-30T07:05:02;102417.50;;;8.23;100.00
74045;BME280;62389;51.412;5.436;2024-01-30T07:07:28;102431.44;;;8.23;100.00
74045;BME280;62389;51.412;5.436;2024-01-30T07:09:54;102437.50;;;8.24;100.00
74045;BME280;62389;51.412;5.436;2024-01-30T07:12:22;102442.72;;;8.25;100.00
74045;BME280;62389;51.412;5.436;2024-01-30T07:14:49;102451.38;;;8.27;100.00
74045;BME280;62389;51.412;5.436;2024-01-30T07:17:15;102451.38;;;8.27;100.00
74045;BME280;62389;51.412;5.436;2024-01-30T07:19:41;102449.66;;;8.26;100.00
74045;BME280;62389;51.412;5.436;2024-01-30T07:22:06;102454.84;;;8.26;100.00
74045;BME280;62389;51.412;5.436;2024-01-30T07:24:31;102454.00;;;8.26;100.00
74045;BME280;62389;51.412;5.436;2024-01-30T07:26:57;102459.22;;;8.26;100.00
74045;BME280;62389;51.412;5.436;2024-01-30T07:29:22;102458.34;;;8.25;100.00
74045;BME280;62389;51.412;5.436;2024-01-30T07:31:47;102462.69;;;8.25;100.00
74045;BME280;62389;51.412;5.436;2024-01-30T07:34:13;102460.13;;;8.23;100.00
74045;BME280;62389;51.412;5.436;2024-01-30T07:36:39;102474.88;;;8.24;100.00
74045;BME280;62389;51.412;5.436;2024-01-30T07:39:04;102470.53;;;8.25;100.00
74045;BME280;62389;51.412;5.436;2024-01-30T07:41:29;102471.41;;;8.24;100.00
74045;BME280;62389;51.412;5.436;2024-01-30T07:43:55;102472.28;;;8.21;100.00
74045;BME280;62389;51.412;5.436;2024-01-30T07:46:20;102479.22;;;8.21;100.00
74045;BME280;62389;51.412;5.436;2024-01-30T07:48:45;102473.19;;;8.19;100.00
74045;BME280;62389;51.412;5.436;2024-01-30T07:51:11;102482.75;;;8.18;100.00
74045;BME280;62389;51.412;5.436;2024-01-30T07:53:36;102487.97;;;8.18;100.00
74045;BME280;62389;51.412;5.436;2024-01-30T07:56:02;102484.47;;;8.19;100.00
74045;BME280;62389;51.412;5.436;2024-01-30T07:58:27;102487.06;;;8.19;100.00
74045;BME280;62389;51.412;5.436;2024-01-30T08:00:53;102493.19;;;8.18;100.00
74045;BME280;62389;51.412;5.436;2024-01-30T08:03:19;102498.38;;;8.18;100.00
74045;BME280;62389;51.412;5.436;2024-01-30T08:05:44;102487.97;;;8.18;100.00
74045;BME280;62389;51.412;5.436;2024-01-30T08:08:09;102502.69;;;8.21;100.00
74045;BME280;62389;51.412;5.436;2024-01-30T08:10:36;102502.69;;;8.21;100.00
74045;BME280;62389;51.412;5.436;2024-01-30T08:13:01;102502.69;;;8.22;100.00
74045;BME280;62389;51.412;5.436;2024-01-30T08:15:27;102504.41;;;8.22;100.00
74045;BME280;62389;51.412;5.436;2024-01-30T08:17:52;102499.22;;;8.22;100.00
74045;BME280;62389;51.412;5.436;2024-01-30T08:20:24;102505.28;;;8.24;100.00
74045;BME280;62389;51.412;5.436;2024-01-30T08:22:49;102494.81;;;8.27;100.00
74045;BME280;62389;51.412;5.436;2024-01-30T08:25:14;102499.16;;;8.29;100.00
74045;BME280;62389;51.412;5.436;2024-01-30T08:27:40;102506.09;;;8.32;100.00
74045;BME280;62389;51.412;5.436;2024-01-30T08:30:06;102505.22;;;8.36;100.00
74045;BME280;62389;51.412;5.436;2024-01-30T08:32:32;102494.75;;;8.41;100.00
74045;BME280;62389;51.412;5.436;2024-01-30T08:34:57;102498.19;;;8.46;100.00
74045;BME280;62389;51.412;5.436;2024-01-30T08:37:23;102505.13;;;8.50;100.00
74045;BME280;62389;51.412;5.436;2024-01-30T08:39:48;102500.75;;;8.53;100.00
74045;BME280;62389;51.412;5.436;2024-01-30T08:42:14;102506.78;;;8.59;100.00
74045;BME280;62389;51.412;5.436;2024-01-30T08:44:39;102503.28;;;8.61;100.00
74045;BME280;62389;51.412;5.436;2024-01-30T08:47:05;102502.38;;;8.65;100.00
74045;BME280;62389;51.412;5.436;2024-01-30T08:49:31;102495.38;;;8.69;100.00
74045;BME280;62389;51.412;5.436;2024-01-30T08:51:56;102502.31;;;8.71;100.00
74045;BME280;62389;51.412;5.436;2024-01-30T08:54:22;102504.88;;;8.76;100.00
74045;BME280;62389;51.412;5.436;2024-01-30T08:56:48;102499.63;;;8.77;100.00
74045;BME280;62389;51.412;5.436;2024-01-30T08:59:13;102501.34;;;8.81;100.00
74045;BME280;62389;51.412;5.436;2024-01-30T09:01:38;102494.31;;;8.87;100.00
74045;BME280;62389;51.412;5.436;2024-01-30T09:04:04;102495.16;;;8.92;100.00
74045;BME280;62389;51.412;5.436;2024-01-30T09:06:29;102509.00;;;8.97;100.00
74045;BME280;62389;51.412;5.436;2024-01-30T09:08:55;102489.81;;;9.02;100.00
74045;BME280;62389;51.412;5.436;2024-01-30T09:11:20;102492.41;;;9.05;100.00
74045;BME280;62389;51.412;5.436;2024-01-30T09:13:45;102497.56;;;9.08;100.00
74045;BME280;62389;51.412;5.436;2024-01-30T09:16:11;102503.63;;;9.12;100.00
74045;BME280;62389;51.412;5.436;2024-01-30T09:18:36;102507.94;;;9.16;100.00
74045;BME280;62389;51.412;5.436;2024-01-30T09:21:02;102509.59;;;9.22;100.00
74045;BME280;62389;51.412;5.436;2024-01-30T09:23:28;102514.78;;;9.26;100.00
74045;BME280;62389;51.412;5.436;2024-01-30T09:25:53;102513.91;;;9.27;100.00
74045;BME280;62389;51.412;5.436;2024-01-30T09:28:18;102517.31;;;9.32;100.00
74045;BME280;62389;51.412;5.436;2024-01-30T09:30:44;102511.19;;;9.37;100.00
74045;BME280;62389;51.412;5.436;2024-01-30T09:33:09;102515.47;;;9.42;100.00
74045;BME280;62389;51.412;5.436;2024-01-30T09:35:36;102527.59;;;9.46;100.00
74045;BME280;62389;51.412;5.436;2024-01-30T09:38:01;102524.97;;;9.49;100.00
74045;BME280;62389;51.412;5.436;2024-01-30T09:40:27;102530.16;;;9.51;100.00
74045;BME280;62389;51.412;5.436;2024-01-30T09:42:53;102524.91;;;9.52;100.00
74045;BME280;62389;51.412;5.436;2024-01-30T09:45:21;102531.88;;;9.55;100.00
74045;BME280;62389;51.412;5.436;2024-01-30T09:47:48;102528.34;;;9.56;100.00
74045;BME280;62389;51.412;5.436;2024-01-30T09:50:15;102537.88;;;9.58;100.00
74045;BME280;62389;51.412;5.436;2024-01-30T09:52:41;102542.22;;;9.61;100.00
74045;BME280;62389;51.412;5.436;2024-01-30T09:55:07;102542.19;;;9.63;100.00
74045;BME280;62389;51.412;5.436;2024-01-30T09:57:34;102538.69;;;9.65;100.00
74045;BME280;62389;51.412;5.436;2024-01-30T09:59:59;102549.09;;;9.68;100.00
74045;BME280;62389;51.412;5.436;2024-01-30T10:02:25;102545.56;;;9.72;100.00
74045;BME280;62389;51.412;5.436;2024-01-30T10:04:51;102542.06;;;9.75;100.00
74045;BME280;62389;51.412;5.436;2024-01-30T10:07:17;102541.09;;;9.80;100.00
74045;BME280;62389;51.412;5.436;2024-01-30T10:09:43;102539.34;;;9.84;100.00
74045;BME280;62389;51.412;5.436;2024-01-30T10:12:09;102543.59;;;9.90;100.00
74045;BME280;62389;51.412;5.436;2024-01-30T10:14:38;102546.16;;;9.94;100.00
74045;BME280;62389;51.412;5.436;2024-01-30T10:17:03;102543.50;;;9.96;100.00
74045;BME280;62389;51.412;5.436;2024-01-30T10:19:30;102552.19;;;9.99;100.00
74045;BME280;62389;51.412;5.436;2024-01-30T10:21:56;102540.84;;;10.00;100.00
74045;BME280;62389;51.412;5.436;2024-01-30T10:24:25;102552.13;;;10.02;100.00
74045;BME280;62389;51.412;5.436;2024-01-30T10:26:50;102557.31;;;10.04;100.00
74045;BME280;62389;51.412;5.436;2024-01-30T10:29:16;102564.31;;;10.05;100.00
74045;BME280;62389;51.412;5.436;2024-01-30T10:31:42;102559.03;;;10.06;100.00
74045;BME280;62389;51.412;5.436;2024-01-30T10:34:07;102560.81;;;10.06;100.00
74045;BME280;62389;51.412;5.436;2024-01-30T10:36:39;102565.13;;;10.07;100.00
74045;BME280;62389;51.412;5.436;2024-01-30T10:39:06;102558.13;;;10.09;100.00
74045;BME280;62389;51.412;5.436;2024-01-30T10:41:42;102561.59;;;10.11;100.00
74045;BME280;62389;51.412;5.436;2024-01-30T10:44:09;102562.44;;;10.13;100.00
74045;BME280;62389;51.412;5.436;2024-01-30T10:46:35;102581.63;;;10.12;100.00
74045;BME280;62389;51.412;5.436;2024-01-30T10:49:04;102579.03;;;10.10;100.00
74045;BME280;62389;51.412;5.436;2024-01-30T10:51:32;102566.84;;;10.09;100.00
74045;BME280;62389;51.412;5.436;2024-01-30T10:53:57;102565.16;;;10.05;100.00
74045;BME280;62389;51.412;5.436;2024-01-30T10:56:23;102564.31;;;10.05;100.00
74045;BME280;62389;51.412;5.436;2024-01-30T10:58:53;102563.38;;;10.07;100.00
74045;BME280;62389;51.412;5.436;2024-01-30T11:01:20;102567.66;;;10.13;100.00
74045;BME280;62389;51.412;5.436;2024-01-30T11:03:49;102562.38;;;10.19;100.00
74045;BME280;62389;51.412;5.436;2024-01-30T11:06:15;102565.72;;;10.29;100.00
74045;BME280;62389;51.412;5.436;2024-01-30T11:08:46;102575.22;;;10.36;100.00
74045;BME280;62389;51.412;5.436;2024-01-30T11:11:24;102572.53;;;10.39;100.00
74045;BME280;62389;51.412;5.436;2024-01-30T11:13:50;102562.97;;;10.40;100.00
74045;BME280;62389;51.412;5.436;2024-01-30T11:16:15;102566.44;;;10.38;100.00
74045;BME280;62389;51.412;5.436;2024-01-30T11:18:41;102563.84;;;10.37;100.00
74045;BME280;62389;51.412;5.436;2024-01-30T11:21:06;102565.59;;;10.36;100.00
74045;BME280;62389;51.412;5.436;2024-01-30T11:23:33;102564.78;;;10.34;100.00
74045;BME280;62389;51.412;5.436;2024-01-30T11:25:59;102572.56;;;10.37;100.00
74045;BME280;62389;51.412;5.436;2024-01-30T11:28:32;102565.50;;;10.43;100.00
74045;BME280;62389;51.412;5.436;2024-01-30T11:31:05;102563.69;;;10.49;100.00
74045;BME280;62389;51.412;5.436;2024-01-30T11:33:32;102570.50;;;10.58;100.00
74045;BME280;62389;51.412;5.436;2024-01-30T11:35:58;102563.44;;;10.63;100.00
74045;BME280;62389;51.412;5.436;2024-01-30T11:38:27;102559.88;;;10.67;100.00
74045;BME280;62389;51.412;5.436;2024-01-30T11:40:56;102556.38;;;10.68;100.00
74045;BME280;62389;51.412;5.436;2024-01-30T11:43:22;102566.84;;;10.68;100.00
74045;BME280;62389;51.412;5.436;2024-01-30T11:45:49;102559.03;;;10.67;100.00
74045;BME280;62389;51.412;5.436;2024-01-30T11:48:14;102559.88;;;10.67;100.00
74045;BME280;62389;51.412;5.436;2024-01-30T11:50:40;102557.28;;;10.67;100.00
74045;BME280;62389;51.412;5.436;2024-01-30T11:53:10;102560.75;;;10.68;100.00
74045;BME280;62389;51.412;5.436;2024-01-30T11:55:35;102551.91;;;10.73;100.00
74045;BME280;62389;51.412;5.436;2024-01-30T11:58:03;102540.56;;;10.76;100.00
74045;BME280;62389;51.412;5.436;2024-01-30T12:00:29;102556.09;;;10.85;100.00
74045;BME280;62389;51.412;5.436;2024-01-30T12:02:56;102554.97;;;10.98;100.00
74045;BME280;62389;51.412;5.436;2024-01-30T12:05:23;102544.09;;;11.21;100.00
74045;BME280;62389;51.412;5.436;2024-01-30T12:07:48;102544.59;;;11.38;99.60
74045;BME280;62389;51.412;5.436;2024-01-30T12:10:14;102554.06;;;11.47;99.60
74045;BME280;62389;51.412;5.436;2024-01-30T12:12:41;102555.63;;;11.54;99.25
74045;BME280;62389;51.412;5.436;2024-01-30T12:15:08;102561.63;;;11.61;98.28
74045;BME280;62389;51.412;5.436;2024-01-30T12:17:34;102567.78;;;11.58;98.10
74045;BME280;62389;51.412;5.436;2024-01-30T12:20:07;102569.03;;;11.40;100.00
74045;BME280;62389;51.412;5.436;2024-01-30T12:22:37;102564.16;;;11.22;100.00
74045;BME280;62389;51.412;5.436;2024-01-30T12:25:09;102572.44;;;10.98;100.00
74045;BME280;62389;51.412;5.436;2024-01-30T12:27:36;102591.03;;;10.82;100.00
74045;BME280;62389;51.412;5.436;2024-01-30T12:30:05;102600.81;;;10.71;100.00
74045;BME280;62389;51.412;5.436;2024-01-30T12:32:30;102604.44;;;10.62;100.00
74045;BME280;62389;51.412;5.436;2024-01-30T12:34:56;102601.81;;;10.62;100.00
74045;BME280;62389;51.412;5.436;2024-01-30T12:37:22;102605.22;;;10.68;100.00
74045;BME280;62389;51.412;5.436;2024-01-30T12:39:51;102604.91;;;10.87;99.39
74045;BME280;62389;51.412;5.436;2024-01-30T12:42:19;102601.59;;;11.27;100.00